Time;durP1;ratioP1;P1;durP2;ratioP2;P2;SDS_P1;SDS_P2;PMS_P1;PMS_P2;Temp;Humidity;BMP_temperature;BMP_pressure;BME280_temperature;BME280_humidity;BME280_pressure;Samples;Min_cycle;Max_cycle;Signal;HPM_P1;HPM_P2
2022/09/07 00:01:01;;;;;;;2.70;1.40;;;;;;;-142.37;100.00;59669.53;4955727;28;20026;-63
2022/09/07 00:03:28;;;;;;;2.38;1.02;;;;;;;-142.37;100.00;59669.53;4974357;28;20027;-61
2022/09/07 00:05:54;;;;;;;2.25;1.20;;;;;;;-142.37;100.00;59669.53;4979462;28;20035;-64
2022/09/07 00:08:21;;;;;;;1.20;0.90;;;;;;;-142.37;100.00;59669.53;4979911;28;20031;-63
2022/09/07 00:10:52;;;;;;;1.13;1.02;;;;;;;-142.37;100.00;59669.53;4979781;28;20034;-63
2022/09/07 00:13:18;;;;;;;0.90;0.80;;;;;;;-142.37;100.00;59669.53;4979744;28;20065;-62
2022/09/07 00:15:43;;;;;;;3.08;0.90;;;;;;;-142.37;100.00;59669.53;4979771;28;20058;-62
2022/09/07 00:18:09;;;;;;;3.65;1.08;;;;;;;-142.37;100.00;59669.53;4979709;28;20035;-65
2022/09/07 00:20:35;;;;;;;2.30;1.00;;;;;;;-142.37;100.00;59669.53;4962086;28;20509;-62
2022/09/07 00:23:00;;;;;;;1.27;0.95;;;;;;;-142.37;100.00;59669.53;4979488;28;20066;-64
2022/09/07 00:25:26;;;;;;;1.00;0.90;;;;;;;-142.37;100.00;59669.53;4962172;28;20117;-63
2022/09/07 00:27:51;;;;;;;1.25;1.05;;;;;;;-142.37;100.00;59669.53;4978232;28;20117;-62
2022/09/07 00:30:17;;;;;;;3.53;0.90;;;;;;;-142.37;100.00;59669.53;4962139;28;20495;-62
2022/09/07 00:32:43;;;;;;;7.85;1.45;;;;;;;-142.37;100.00;59669.53;4979485;28;20431;-63
2022/09/07 00:35:08;;;;;;;2.53;0.85;;;;;;;-142.37;100.00;59669.53;4961790;28;20026;-63
2022/09/07 00:37:35;;;;;;;3.20;1.17;;;;;;;-142.37;100.00;59669.53;4962226;28;20410;-62
2022/09/07 00:40:02;;;;;;;0.98;0.88;;;;;;;-142.37;100.00;59669.53;4962326;28;20510;-62
2022/09/07 00:42:27;;;;;;;1.35;0.95;;;;;;;-142.37;100.00;59669.53;4962200;28;20403;-63
2022/09/07 00:45:04;;;;;;;4.32;0.93;;;;;;;-142.37;100.00;59669.53;4979306;28;20078;-63
2022/09/07 00:47:41;;;;;;;1.63;1.02;;;;;;;-142.37;100.00;59669.53;4979278;28;20053;-63
2022/09/07 00:50:18;;;;;;;1.95;0.80;;;;;;;-142.37;100.00;59669.53;4979514;28;20027;-63
2022/09/07 00:52:47;;;;;;;2.00;1.00;;;;;;;-142.37;100.00;59669.53;4961913;28;20030;-61
2022/09/07 00:55:16;;;;;;;1.55;1.00;;;;;;;-142.37;100.00;59669.53;4961751;28;20027;-62
2022/09/07 00:57:46;;;;;;;2.75;1.02;;;;;;;-142.37;100.00;59669.53;4977911;28;20093;-62
2022/09/07 01:00:12;;;;;;;1.20;1.10;;;;;;;-142.37;100.00;59669.53;4961825;28;20055;-62
2022/09/07 01:02:39;;;;;;;3.95;0.98;;;;;;;-142.37;100.00;59669.53;4979382;28;20377;-63
2022/09/07 01:05:14;;;;;;;1.50;1.15;;;;;;;-142.37;100.00;59669.53;4961731;28;20042;-63
2022/09/07 01:07:40;;;;;;;1.17;1.05;;;;;;;-142.37;100.00;59669.53;4979248;28;20035;-61
2022/09/07 01:10:07;;;;;;;3.10;1.20;;;;;;;-142.37;100.00;59669.53;4961818;28;20066;-62
2022/09/07 01:12:33;;;;;;;1.85;1.10;;;;;;;-142.37;100.00;59669.53;4961606;28;20026;-63
2022/09/07 01:14:59;;;;;;;2.03;1.23;;;;;;;-142.37;100.00;59669.53;4977599;28;20038;-62
2022/09/07 01:17:41;;;;;;;2.28;1.27;;;;;;;-142.37;100.00;59669.53;4975781;28;20031;-62
2022/09/07 01:20:16;;;;;;;4.35;1.00;;;;;;;-142.37;100.00;59669.53;4976119;28;20058;-63
2022/09/07 01:23:03;;;;;;;2.03;1.00;;;;;;;-142.37;100.00;59669.53;4975967;28;20066;-63
2022/09/07 01:25:41;;;;;;;1.58;1.00;;;;;;;-142.37;100.00;59669.53;4976152;28;20042;-63
2022/09/07 01:28:14;;;;;;;1.27;1.00;;;;;;;-142.37;100.00;59669.53;4958686;28;20034;-63
2022/09/07 01:30:50;;;;;;;1.20;0.90;;;;;;;-142.37;100.00;59669.53;4974618;28;20101;-62
2022/09/07 01:33:19;;;;;;;3.60;1.10;;;;;;;-142.37;100.00;59669.53;4958190;28;20492;-63
2022/09/07 01:36:04;;;;;;;2.28;1.20;;;;;;;-142.37;100.00;59669.53;4976031;28;20034;-63
2022/09/07 01:38:36;;;;;;;2.22;1.20;;;;;;;-142.37;100.00;59669.53;4957822;28;20097;-62
2022/09/07 01:41:02;;;;;;;1.38;1.27;;;;;;;-142.37;100.00;59669.53;4975668;28;20026;-65
2022/09/07 01:43:57;;;;;;;1.40;0.80;;;;;;;-142.37;100.00;59669.53;4974494;28;20031;-63
2022/09/07 01:46:45;;;;;;;2.58;1.38;;;;;;;-142.37;100.00;59669.53;4958278;28;20043;-63
2022/09/07 01:49:16;;;;;;;1.35;1.00;;;;;;;-142.37;100.00;59669.53;4975455;28;20056;-63
2022/09/07 01:51:47;;;;;;;3.00;1.13;;;;;;;-142.37;100.00;59669.53;4975945;28;20471;-62
2022/09/07 01:54:21;;;;;;;4.43;1.90;;;;;;;-142.37;100.00;59669.53;4958108;28;20045;-63
2022/09/07 01:56:50;;;;;;;3.83;1.23;;;;;;;-142.37;100.00;59669.53;4958324;28;20039;-63
2022/09/07 01:59:31;;;;;;;3.28;1.38;;;;;;;-142.37;100.00;59669.53;4958079;28;20718;-63
2022/09/07 02:02:03;;;;;;;4.20;1.10;;;;;;;-142.37;100.00;59669.53;4975429;28;20023;-63
2022/09/07 02:04:53;;;;;;;1.48;1.00;;;;;;;-142.37;100.00;59669.53;4957890;28;20554;-63
2022/09/07 02:07:26;;;;;;;2.25;1.10;;;;;;;-142.37;100.00;59669.53;4973581;28;20041;-63
2022/09/07 02:10:00;;;;;;;1.73;1.10;;;;;;;-142.37;100.00;59669.53;4975184;28;20031;-62
2022/09/07 02:12:38;;;;;;;1.77;1.10;;;;;;;-142.37;100.00;59669.53;4975135;28;20038;-62
2022/09/07 02:15:13;;;;;;;1.05;0.93;;;;;;;-142.37;100.00;59669.53;4974789;28;20032;-63
2022/09/07 02:17:44;;;;;;;1.40;1.10;;;;;;;-142.37;100.00;59669.53;4957840;28;20034;-63
2022/09/07 02:20:19;;;;;;;3.17;1.30;;;;;;;-142.37;100.00;59669.53;4975164;28;20058;-62
2022/09/07 02:22:50;;;;;;;5.07;1.20;;;;;;;-142.37;100.00;59669.53;4974947;28;20027;-63
2022/09/07 02:25:22;;;;;;;2.45;1.20;;;;;;;-142.37;100.00;59669.53;4974744;28;20513;-67
2022/09/07 02:28:23;;;;;;;2.45;0.93;;;;;;;-142.37;100.00;59669.53;4974658;28;20035;-63
2022/09/07 02:30:49;;;;;;;1.90;1.27;;;;;;;-142.37;100.00;59669.53;4950148;28;20043;-62
2022/09/07 02:33:15;;;;;;;1.17;0.90;;;;;;;-142.37;100.00;59669.53;4974612;28;20125;-63
2022/09/07 02:35:40;;;;;;;2.60;1.67;;;;;;;-142.37;100.00;59669.53;4974662;28;20030;-63
2022/09/07 02:38:06;;;;;;;5.07;1.15;;;;;;;-142.37;100.00;59669.53;4974757;28;20027;-63
2022/09/07 02:40:33;;;;;;;2.08;1.33;;;;;;;-142.37;100.00;59669.53;4957425;28;20624;-64
2022/09/07 02:43:02;;;;;;;1.98;1.20;;;;;;;-142.37;100.00;59669.53;4974284;28;20035;-64
2022/09/07 02:46:05;;;;;;;1.75;1.20;;;;;;;-142.37;100.00;59669.53;4974442;28;20109;-63
2022/09/07 02:48:50;;;;;;;2.40;1.13;;;;;;;-142.37;100.00;59669.53;4973012;28;20032;-62
2022/09/07 02:51:37;;;;;;;2.90;1.27;;;;;;;-142.37;100.00;59669.53;4956965;28;20552;-64
2022/09/07 02:54:21;;;;;;;1.35;1.25;;;;;;;-142.37;100.00;59669.53;4974389;28;20035;-63
2022/09/07 02:56:57;;;;;;;1.63;0.98;;;;;;;-142.37;100.00;59669.53;4974289;28;20030;-63
2022/09/07 02:59:44;;;;;;;1.65;0.93;;;;;;;-142.37;100.00;59669.53;4957104;28;20035;-63
2022/09/07 03:02:30;;;;;;;1.45;1.13;;;;;;;-142.37;100.00;59669.53;4973019;28;20480;-63
2022/09/07 03:05:28;;;;;;;3.85;1.10;;;;;;;-142.37;100.00;59669.53;4956827;28;20452;-64
2022/09/07 03:08:33;;;;;;;4.88;1.95;;;;;;;-142.37;100.00;59669.53;4973883;28;20117;-64
2022/09/07 03:11:00;;;;;;;3.30;1.20;;;;;;;-142.37;100.00;59669.53;4950977;28;20049;-64
2022/09/07 03:13:28;;;;;;;3.72;1.10;;;;;;;-142.37;100.00;59669.53;4973844;28;20035;-63
2022/09/07 03:15:54;;;;;;;1.65;1.20;;;;;;;-142.37;100.00;59669.53;4974362;28;20476;-62
2022/09/07 03:18:20;;;;;;;4.18;1.08;;;;;;;-142.37;100.00;59669.53;4974181;28;20038;-63
2022/09/07 03:20:46;;;;;;;4.25;1.00;;;;;;;-142.37;100.00;59669.53;4973988;28;20027;-63
2022/09/07 03:23:11;;;;;;;1.98;0.88;;;;;;;-142.37;100.00;59669.53;4973551;28;20031;-63
2022/09/07 03:25:37;;;;;;;1.77;1.20;;;;;;;-142.37;100.00;59669.53;4956455;28;20038;-63
2022/09/07 03:28:03;;;;;;;2.08;1.13;;;;;;;-142.37;100.00;59669.53;4956228;28;20046;-63
2022/09/07 03:30:29;;;;;;;5.95;1.75;;;;;;;-142.37;100.00;59669.53;4956386;28;20051;-63
2022/09/07 03:32:55;;;;;;;1.33;1.00;;;;;;;-142.37;100.00;59669.53;4973933;28;20081;-63
2022/09/07 03:35:21;;;;;;;2.50;1.20;;;;;;;-142.37;100.00;59669.53;4973646;28;20093;-62
2022/09/07 03:37:47;;;;;;;4.00;1.90;;;;;;;-142.37;100.00;59669.53;4973558;28;20488;-63
2022/09/07 03:40:15;;;;;;;2.53;1.08;;;;;;;-142.37;100.00;59669.53;4973260;28;20028;-63
2022/09/07 03:42:41;;;;;;;2.97;1.25;;;;;;;-142.37;100.00;59669.53;4956185;28;20062;-63
2022/09/07 03:45:08;;;;;;;2.53;1.50;;;;;;;-142.37;100.00;59669.53;4973549;28;20062;-63
2022/09/07 03:47:35;;;;;;;1.52;1.05;;;;;;;-142.37;100.00;59669.53;4973517;28;20045;-63
2022/09/07 03:50:01;;;;;;;2.22;1.00;;;;;;;-142.37;100.00;59669.53;4973322;28;20046;-63
2022/09/07 03:52:26;;;;;;;3.53;1.27;;;;;;;-142.37;100.00;59669.53;4973389;28;20548;-63
2022/09/07 03:54:52;;;;;;;5.82;1.20;;;;;;;-142.37;100.00;59669.53;4955947;28;20031;-63
2022/09/07 03:57:19;;;;;;;3.50;1.05;;;;;;;-142.37;100.00;59669.53;4973377;28;20042;-63
2022/09/07 03:59:45;;;;;;;1.27;0.93;;;;;;;-142.37;100.00;59669.53;4973554;28;20054;-64
2022/09/07 04:02:12;;;;;;;4.10;1.35;;;;;;;-142.37;100.00;59669.53;4956089;28;20487;-64
2022/09/07 04:04:37;;;;;;;2.72;1.13;;;;;;;-142.37;100.00;59669.53;4973382;28;20106;-64
2022/09/07 04:07:03;;;;;;;4.03;1.25;;;;;;;-142.37;100.00;59669.53;4955414;28;20165;-63
2022/09/07 04:09:29;;;;;;;2.33;1.15;;;;;;;-142.37;100.00;59669.53;4972991;28;20041;-64
2022/09/07 04:11:54;;;;;;;1.25;1.10;;;;;;;-142.37;100.00;59669.53;4973087;28;20034;-63
2022/09/07 04:14:20;;;;;;;3.83;1.67;;;;;;;-142.37;100.00;59669.53;4973214;28;20050;-63
2022/09/07 04:16:46;;;;;;;2.70;0.90;;;;;;;-142.37;100.00;59669.53;4973078;28;20059;-64
2022/09/07 04:19:12;;;;;;;1.80;1.02;;;;;;;-142.37;100.00;59669.53;4955496;28;20030;-64
2022/09/07 04:21:38;;;;;;;6.45;1.77;;;;;;;-142.37;100.00;59669.53;4955862;28;20027;-64
2022/09/07 04:24:04;;;;;;;6.50;1.23;;;;;;;-142.37;100.00;59669.53;4973096;28;20023;-64
2022/09/07 04:26:34;;;;;;;2.55;1.45;;;;;;;-142.37;100.00;59669.53;4972892;28;20086;-64
2022/09/07 04:29:01;;;;;;;2.42;1.10;;;;;;;-142.37;100.00;59669.53;4973151;28;20427;-63
2022/09/07 04:31:27;;;;;;;4.40;1.20;;;;;;;-142.37;100.00;59669.53;4955478;28;20047;-64
2022/09/07 04:33:53;;;;;;;2.92;1.05;;;;;;;-142.37;100.00;59669.53;4955724;28;20543;-64
2022/09/07 04:36:20;;;;;;;4.20;1.00;;;;;;;-142.37;100.00;59669.53;4972873;28;20109;-64
2022/09/07 04:38:46;;;;;;;1.83;1.35;;;;;;;-142.37;100.00;59669.53;4955545;28;20121;-65
2022/09/07 04:41:14;;;;;;;2.85;1.00;;;;;;;-142.37;100.00;59669.53;4955260;28;20039;-64
2022/09/07 04:43:42;;;;;;;1.17;1.08;;;;;;;-142.37;100.00;59669.53;4972965;28;20052;-64
2022/09/07 04:46:28;;;;;;;3.20;1.60;;;;;;;-142.37;100.00;59669.53;4955443;28;20404;-63
2022/09/07 04:48:59;;;;;;;9.20;1.48;;;;;;;-142.37;100.00;59669.53;4972552;28;20049;-64
2022/09/07 04:51:27;;;;;;;2.78;1.40;;;;;;;-142.37;100.00;59669.53;4957170;28;20030;-64
2022/09/07 04:53:54;;;;;;;2.05;1.13;;;;;;;-142.37;100.00;59669.53;4976520;28;20055;-63
2022/09/07 04:56:21;;;;;;;2.08;1.00;;;;;;;-142.37;100.00;59669.53;4975951;28;20035;-63
2022/09/07 04:58:47;;;;;;;2.00;1.10;;;;;;;-142.37;100.00;59669.53;4958864;28;20451;-64
2022/09/07 05:01:15;;;;;;;4.18;1.40;;;;;;;-142.37;100.00;59669.53;4958119;28;20031;-63
2022/09/07 05:03:41;;;;;;;2.53;1.13;;;;;;;-142.37;100.00;59669.53;4975685;28;20035;-64
2022/09/07 05:06:08;;;;;;;3.42;1.20;;;;;;;-142.37;100.00;59669.53;4975966;28;20035;-64
2022/09/07 05:08:42;;;;;;;2.75;1.42;;;;;;;-142.37;100.00;59669.53;4958582;28;20026;-63
2022/09/07 05:11:12;;;;;;;4.55;1.10;;;;;;;-142.37;100.00;59669.53;4958256;28;20500;-65
2022/09/07 05:13:38;;;;;;;10.27;1.48;;;;;;;-142.37;100.00;59669.53;4975761;28;20035;-64
2022/09/07 05:16:12;;;;;;;2.60;1.23;;;;;;;-142.37;100.00;59669.53;4957790;28;20475;-65
2022/09/07 05:18:38;;;;;;;2.90;1.25;;;;;;;-142.37;100.00;59669.53;4975636;28;20143;-63
2022/09/07 05:21:15;;;;;;;5.13;1.55;;;;;;;-142.37;100.00;59669.53;4957592;28;20627;-65
2022/09/07 05:23:41;;;;;;;4.22;1.80;;;;;;;-142.37;100.00;59669.53;4975289;28;20113;-64
2022/09/07 05:26:08;;;;;;;4.68;1.50;;;;;;;-142.37;100.00;59669.53;4975341;28;20504;-64
2022/09/07 05:28:35;;;;;;;5.10;1.30;;;;;;;-142.37;100.00;59669.53;4957766;28;20502;-62
2022/09/07 05:31:06;;;;;;;8.95;1.67;;;;;;;-142.37;100.00;59669.53;4957168;28;20059;-64
2022/09/07 05:33:33;;;;;;;6.28;1.40;;;;;;;-142.37;100.00;59669.53;4975016;28;20424;-64
2022/09/07 05:36:00;;;;;;;5.50;1.55;;;;;;;-142.37;100.00;59669.53;4975070;28;20110;-65
2022/09/07 05:38:26;;;;;;;4.00;1.40;;;;;;;-142.37;100.00;59669.53;4974536;28;20023;-64
2022/09/07 05:40:53;;;;;;;4.57;1.10;;;;;;;-142.37;100.00;59669.53;4956963;28;20097;-65
2022/09/07 05:43:19;;;;;;;4.65;1.33;;;;;;;-142.37;100.00;59669.53;4972818;28;20037;-65
2022/09/07 05:45:44;;;;;;;3.55;1.20;;;;;;;-142.37;100.00;59669.53;4956944;28;20035;-64
2022/09/07 05:48:10;;;;;;;3.53;1.00;;;;;;;-142.37;100.00;59669.53;4974816;28;20047;-65
2022/09/07 05:50:36;;;;;;;6.03;1.50;;;;;;;-142.37;100.00;59669.53;4974797;28;20100;-66
2022/09/07 05:53:02;;;;;;;2.85;0.90;;;;;;;-142.37;100.00;59669.53;4973520;28;20442;-65
2022/09/07 05:55:30;;;;;;;2.70;0.85;;;;;;;-142.37;100.00;59669.53;4974176;28;20136;-65
2022/09/07 05:57:56;;;;;;;4.25;1.08;;;;;;;-142.37;100.00;59669.53;4956064;28;20033;-64
2022/09/07 06:00:22;;;;;;;5.35;1.20;;;;;;;-142.37;100.00;59669.53;4974437;28;20034;-65
2022/09/07 06:02:47;;;;;;;4.40;0.95;;;;;;;-142.37;100.00;59669.53;4956067;28;20050;-64
2022/09/07 06:05:13;;;;;;;3.70;1.05;;;;;;;-142.37;100.00;59669.53;4974239;28;20035;-64
2022/09/07 06:07:39;;;;;;;1.90;0.80;;;;;;;-142.37;100.00;59669.53;4973670;28;20034;-64
2022/09/07 06:10:06;;;;;;;2.63;0.95;;;;;;;-142.37;100.00;59669.53;4955771;28;20027;-64
2022/09/07 06:12:32;;;;;;;3.83;0.88;;;;;;;-142.37;100.00;59669.53;4956546;28;20035;-63
2022/09/07 06:15:00;;;;;;;1.98;0.80;;;;;;;-142.37;100.00;59669.53;4973940;28;20207;-64
2022/09/07 06:17:29;;;;;;;3.05;0.90;;;;;;;-142.37;100.00;59669.53;4973993;28;20023;-65
2022/09/07 06:19:56;;;;;;;2.38;1.25;;;;;;;-142.37;100.00;59669.53;4973125;28;20026;-67
2022/09/07 06:22:22;;;;;;;1.27;0.77;;;;;;;-142.37;100.00;59669.53;4955470;28;20034;-64
2022/09/07 06:24:47;;;;;;;2.78;1.05;;;;;;;-142.37;100.00;59669.53;4973738;28;20498;-65
2022/09/07 06:27:13;;;;;;;3.33;1.30;;;;;;;-142.37;100.00;59669.53;4955477;28;20420;-66
2022/09/07 06:29:39;;;;;;;1.77;0.60;;;;;;;-142.37;100.00;59669.53;4955736;28;20051;-64
2022/09/07 06:32:04;;;;;;;4.03;0.80;;;;;;;-142.37;100.00;59669.53;4973772;28;20037;-65
2022/09/07 06:34:30;;;;;;;2.08;0.80;;;;;;;-142.37;100.00;59669.53;4973669;28;20058;-64
2022/09/07 06:36:56;;;;;;;2.60;0.60;;;;;;;-142.37;100.00;59669.53;4956140;28;20094;-75
2022/09/07 06:39:22;;;;;;;3.33;0.40;;;;;;;-142.37;100.00;59669.53;4973360;28;20077;-64
2022/09/07 06:41:47;;;;;;;1.00;0.40;;;;;;;-142.37;100.00;59669.53;4956140;28;20037;-65
2022/09/07 06:44:13;;;;;;;2.00;0.68;;;;;;;-142.37;100.00;59669.53;4955423;28;20035;-65
2022/09/07 06:46:39;;;;;;;1.10;0.50;;;;;;;-142.37;100.00;59669.53;4972458;28;20043;-64
2022/09/07 06:49:04;;;;;;;1.33;0.60;;;;;;;-142.37;100.00;59669.53;4955394;28;20038;-65
2022/09/07 06:51:31;;;;;;;1.13;0.80;;;;;;;-142.37;100.00;59669.53;4973371;28;20110;-63
2022/09/07 06:53:57;;;;;;;2.25;0.90;;;;;;;-142.37;100.00;59669.53;4973036;28;20093;-65
2022/09/07 06:56:23;;;;;;;0.50;0.40;;;;;;;-142.37;100.00;59669.53;4955469;28;20483;-65
2022/09/07 06:58:57;;;;;;;2.10;0.43;;;;;;;-142.37;100.00;59669.53;4955569;28;20085;-63
2022/09/07 07:01:24;;;;;;;1.23;0.60;;;;;;;-142.37;100.00;59669.53;4955605;28;20046;-64
2022/09/07 07:03:51;;;;;;;1.85;0.60;;;;;;;-142.37;100.00;59669.53;4973183;28;20039;-65
2022/09/07 07:06:17;;;;;;;0.57;0.30;;;;;;;-142.37;100.00;59669.53;4973100;28;20030;-64
2022/09/07 07:08:43;;;;;;;1.58;0.43;;;;;;;-142.37;100.00;59669.53;4973027;28;20070;-66
2022/09/07 07:11:14;;;;;;;2.15;0.93;;;;;;;-142.37;100.00;59669.53;4955620;28;20053;-65
2022/09/07 07:13:42;;;;;;;2.10;0.50;;;;;;;-142.37;100.00;59669.53;4955024;28;20166;-64
2022/09/07 07:16:12;;;;;;;1.92;0.40;;;;;;;-142.37;100.00;59669.53;4973045;28;20050;-65
2022/09/07 07:18:39;;;;;;;1.75;0.45;;;;;;;-142.37;100.00;59669.53;4972637;28;20105;-66
2022/09/07 07:21:08;;;;;;;2.70;0.50;;;;;;;-142.37;100.00;59669.53;4972225;28;20105;-64
2022/09/07 07:23:34;;;;;;;1.35;0.40;;;;;;;-142.37;100.00;59669.53;4972896;28;20065;-64
2022/09/07 07:26:01;;;;;;;1.30;0.32;;;;;;;-142.37;100.00;59669.53;4955616;28;20531;-63
2022/09/07 07:28:27;;;;;;;1.85;0.45;;;;;;;-142.37;100.00;59669.53;4972433;28;20030;-64
2022/09/07 07:31:00;;;;;;;1.60;0.30;;;;;;;-142.37;100.00;59669.53;4954894;28;20384;-64
2022/09/07 07:33:31;;;;;;;0.90;0.30;;;;;;;-142.37;100.00;59669.53;4955598;28;20042;-64
2022/09/07 07:36:20;;;;;;;1.83;0.43;;;;;;;-142.37;100.00;59669.53;4954785;28;20031;-65
2022/09/07 07:38:48;;;;;;;1.80;0.40;;;;;;;-142.37;100.00;59669.53;4972896;28;20035;-65
2022/09/07 07:41:15;;;;;;;0.82;0.32;;;;;;;-142.37;100.00;59669.53;4972999;28;20031;-65
2022/09/07 07:43:41;;;;;;;1.77;0.30;;;;;;;-142.37;100.00;59669.53;4972882;28;20039;-65
2022/09/07 07:46:10;;;;;;;0.73;0.32;;;;;;;-142.37;100.00;59669.53;4955261;28;20034;-64
2022/09/07 07:48:36;;;;;;;0.95;0.40;;;;;;;-142.37;100.00;59669.53;4973089;28;20027;-65
2022/09/07 07:51:08;;;;;;;0.90;0.38;;;;;;;-142.37;100.00;59669.53;4954932;28;20026;-66
2022/09/07 07:53:36;;;;;;;1.60;0.40;;;;;;;-142.37;100.00;59669.53;4955371;28;20507;-63
2022/09/07 07:56:03;;;;;;;0.82;0.30;;;;;;;-142.37;100.00;59669.53;4955411;28;20041;-64
2022/09/07 07:58:30;;;;;;;0.30;0.30;;;;;;;-142.37;100.00;59669.53;4955257;28;20090;-65
2022/09/07 08:01:04;;;;;;;4.78;0.93;;;;;;;-142.37;100.00;59669.53;4954584;28;20381;-64
2022/09/07 08:03:34;;;;;;;1.33;0.30;;;;;;;-142.37;100.00;59669.53;4972672;28;20118;-65
2022/09/07 08:06:12;;;;;;;0.32;0.30;;;;;;;-142.37;100.00;59669.53;4955157;28;20102;-65
2022/09/07 08:08:37;;;;;;;1.75;0.30;;;;;;;-142.37;100.00;59669.53;4972486;28;20084;-66
2022/09/07 08:11:07;;;;;;;4.55;0.68;;;;;;;-142.37;100.00;59669.53;4954949;28;20034;-66
2022/09/07 08:13:35;;;;;;;1.27;0.50;;;;;;;-142.37;100.00;59669.53;4972830;28;20039;-66
2022/09/07 08:16:00;;;;;;;0.47;0.30;;;;;;;-142.37;100.00;59669.53;4955119;28;20069;-64
2022/09/07 08:18:26;;;;;;;1.10;0.63;;;;;;;-142.37;100.00;59669.53;4972822;28;20067;-65
2022/09/07 08:20:52;;;;;;;1.05;0.50;;;;;;;-142.37;100.00;59669.53;4954981;28;20030;-64
2022/09/07 08:23:21;;;;;;;0.70;0.45;;;;;;;-142.37;100.00;59669.53;4972141;28;20135;-64
2022/09/07 08:25:51;;;;;;;0.80;0.43;;;;;;;-142.37;100.00;59669.53;4974994;28;20027;-64
2022/09/07 08:28:18;;;;;;;2.15;0.45;;;;;;;-142.37;100.00;59669.53;4976435;28;20035;-65
2022/09/07 08:30:44;;;;;;;0.28;0.28;;;;;;;-142.37;100.00;59669.53;4958367;28;20361;-63
2022/09/07 08:33:09;;;;;;;3.00;0.60;;;;;;;-142.37;100.00;59669.53;4975741;28;20038;-64
2022/09/07 08:35:35;;;;;;;2.75;0.40;;;;;;;-142.37;100.00;59669.53;4975958;28;20039;-64
2022/09/07 08:38:01;;;;;;;2.05;0.77;;;;;;;-142.37;100.00;59669.53;4974753;28;20047;-63
2022/09/07 08:40:26;;;;;;;0.50;0.30;;;;;;;-142.37;100.00;59669.53;4976010;28;20399;-66
2022/09/07 08:43:19;;;;;;;0.30;0.30;;;;;;;-142.37;100.00;59669.53;4958652;28;20043;-63
2022/09/07 08:45:53;;;;;;;0.85;0.30;;;;;;;-142.37;100.00;59669.53;4974346;28;20034;-62
2022/09/07 08:48:28;;;;;;;1.08;0.20;;;;;;;-142.37;100.00;59669.53;4958181;28;20030;-63
2022/09/07 08:51:11;;;;;;;0.30;0.30;;;;;;;-142.37;100.00;59669.53;4975452;28;20218;-63
2022/09/07 08:53:45;;;;;;;0.20;0.20;;;;;;;-142.37;100.00;59669.53;4974594;28;20030;-63
2022/09/07 08:56:26;;;;;;;1.25;0.40;;;;;;;-142.37;100.00;59669.53;4975620;28;20062;-62
2022/09/07 08:58:52;;;;;;;1.15;0.40;;;;;;;-142.37;100.00;59669.53;4975843;28;20106;-62
2022/09/07 09:01:30;;;;;;;1.90;0.30;;;;;;;-142.37;100.00;59669.53;4957540;28;20114;-64
2022/09/07 09:03:56;;;;;;;0.38;0.35;;;;;;;-142.37;100.00;59669.53;4975879;28;20030;-64
2022/09/07 09:06:51;;;;;;;0.65;0.30;;;;;;;-142.37;100.00;59669.53;4975238;28;20041;-62
2022/09/07 09:10:09;;;;;;;0.98;0.60;;;;;;;-142.37;100.00;59669.53;4973389;28;20031;-62
2022/09/07 09:12:54;;;;;;;0.40;0.20;;;;;;;-142.37;100.00;59669.53;4952911;28;20046;-62
2022/09/07 09:15:35;;;;;;;3.50;0.40;;;;;;;-142.37;100.00;59669.53;4973606;28;20034;-62
2022/09/07 09:18:37;;;;;;;0.60;0.28;;;;;;;-142.37;100.00;59669.53;4975390;28;20034;-62
2022/09/07 09:21:08;;;;;;;0.43;0.30;;;;;;;-142.37;100.00;59669.53;4974888;28;20041;-61
2022/09/07 09:23:39;;;;;;;1.33;0.40;;;;;;;-142.37;100.00;59669.53;4974977;28;20069;-62
2022/09/07 09:26:13;;;;;;;0.40;0.40;;;;;;;-142.37;100.00;59669.53;4974935;28;20031;-65
2022/09/07 09:28:39;;;;;;;1.83;0.47;;;;;;;-142.37;100.00;59669.53;4957962;28;20043;-62
2022/09/07 09:31:05;;;;;;;0.73;0.30;;;;;;;-142.37;100.00;59669.53;4973257;28;20063;-62
2022/09/07 09:33:31;;;;;;;0.28;0.28;;;;;;;-142.37;100.00;59669.53;4975036;28;20038;-64
2022/09/07 09:36:01;;;;;;;1.13;0.30;;;;;;;-142.37;100.00;59669.53;4974357;28;20042;-64
2022/09/07 09:38:33;;;;;;;0.90;0.30;;;;;;;-142.37;100.00;59669.53;4974542;28;20034;-63
2022/09/07 09:41:11;;;;;;;0.80;0.20;;;;;;;-142.37;100.00;59669.53;4974332;28;20057;-62
2022/09/07 09:43:50;;;;;;;0.43;0.43;;;;;;;-142.37;100.00;59669.53;4974093;28;20023;-62
2022/09/07 09:46:24;;;;;;;1.45;0.38;;;;;;;-142.37;100.00;59669.53;4974668;28;20376;-61
2022/09/07 09:48:59;;;;;;;0.20;0.20;;;;;;;-142.37;100.00;59669.53;4972779;28;20396;-62
2022/09/07 09:51:29;;;;;;;0.77;0.30;;;;;;;-142.37;100.00;59669.53;4974953;28;20484;-63
2022/09/07 09:54:00;;;;;;;1.58;0.40;;;;;;;-142.37;100.00;59669.53;4974388;28;20065;-63
2022/09/07 09:56:41;;;;;;;0.90;0.20;;;;;;;-142.37;100.00;59669.53;4972843;28;20487;-61
2022/09/07 09:59:22;;;;;;;2.80;0.63;;;;;;;-142.37;100.00;59669.53;4973313;28;20050;-63
2022/09/07 10:01:49;;;;;;;4.00;1.33;;;;;;;-142.37;100.00;59669.53;4973241;28;20035;-63
2022/09/07 10:04:26;;;;;;;1.52;0.50;;;;;;;-142.37;100.00;59669.53;4956419;28;20035;-63
2022/09/07 10:06:55;;;;;;;0.30;0.20;;;;;;;-142.37;100.00;59669.53;4972838;28;20112;-63
2022/09/07 10:09:25;;;;;;;1.15;0.55;;;;;;;-142.37;100.00;59669.53;4973786;28;20038;-61
2022/09/07 10:11:58;;;;;;;0.68;0.40;;;;;;;-142.37;100.00;59669.53;4974017;28;20030;-64
2022/09/07 10:14:29;;;;;;;0.75;0.25;;;;;;;-142.37;100.00;59669.53;4956564;28;20057;-64
2022/09/07 10:16:57;;;;;;;0.60;0.28;;;;;;;-142.37;100.00;59669.53;4974308;28;20035;-63
2022/09/07 10:19:34;;;;;;;0.28;0.28;;;;;;;-142.37;100.00;59669.53;4974099;28;20035;-62
2022/09/07 10:22:03;;;;;;;0.40;0.20;;;;;;;-142.37;100.00;59669.53;4956280;28;20554;-61
2022/09/07 10:24:38;;;;;;;1.38;0.30;;;;;;;-142.37;100.00;59669.53;4974200;28;20031;-62
2022/09/07 10:27:27;;;;;;;0.32;0.30;;;;;;;-142.37;100.00;59669.53;4955828;28;20041;-62
2022/09/07 10:29:54;;;;;;;0.20;0.17;;;;;;;-142.37;100.00;59669.53;4955324;28;20051;-61
2022/09/07 10:32:22;;;;;;;0.70;0.20;;;;;;;-142.37;100.00;59669.53;4973517;28;20484;-61
2022/09/07 10:35:15;;;;;;;3.17;0.30;;;;;;;-142.37;100.00;59669.53;4972111;28;20400;-61
2022/09/07 10:38:07;;;;;;;3.42;0.63;;;;;;;-142.37;100.00;59669.53;4972045;28;20061;-61
2022/09/07 10:40:39;;;;;;;1.73;0.40;;;;;;;-142.37;100.00;59669.53;4973272;28;20062;-61
2022/09/07 10:43:27;;;;;;;0.35;0.30;;;;;;;-142.37;100.00;59669.53;4972825;28;20058;-62
2022/09/07 10:46:08;;;;;;;0.22;0.10;;;;;;;-142.37;100.00;59669.53;4955283;28;20416;-62
2022/09/07 10:48:57;;;;;;;0.63;0.43;;;;;;;-142.37;100.00;59669.53;4973086;28;20079;-61
2022/09/07 10:51:35;;;;;;;1.80;0.40;;;;;;;-142.37;100.00;59669.53;4971780;28;20038;-62
2022/09/07 10:54:19;;;;;;;0.75;0.30;;;;;;;-142.37;100.00;59669.53;4972470;28;20452;-62
2022/09/07 10:57:11;;;;;;;1.30;0.40;;;;;;;-142.37;100.00;59669.53;4972433;28;20037;-63
2022/09/07 11:00:06;;;;;;;1.00;0.20;;;;;;;-142.37;100.00;59669.53;4955709;28;20264;-63
2022/09/07 11:02:51;;;;;;;0.47;0.32;;;;;;;-142.37;100.00;59669.53;4972808;28;20031;-62
2022/09/07 11:05:30;;;;;;;0.40;0.30;;;;;;;-142.37;100.00;59669.53;4971348;28;20386;-63
2022/09/07 11:08:26;;;;;;;0.22;0.22;;;;;;;-142.37;100.00;59669.53;4972804;28;20468;-63
2022/09/07 11:11:11;;;;;;;0.95;0.28;;;;;;;-142.37;100.00;59669.53;4955516;28;20061;-63
2022/09/07 11:13:40;;;;;;;0.25;0.20;;;;;;;-142.37;100.00;59669.53;4955646;28;20065;-63
2022/09/07 11:16:17;;;;;;;0.40;0.25;;;;;;;-142.37;100.00;59669.53;4955489;28;20090;-62
2022/09/07 11:18:54;;;;;;;3.83;0.40;;;;;;;-142.37;100.00;59669.53;4973427;28;20031;-61
2022/09/07 11:21:27;;;;;;;2.17;0.40;;;;;;;-142.37;100.00;59669.53;4973121;28;20034;-62
2022/09/07 11:23:58;;;;;;;0.40;0.20;;;;;;;-142.37;100.00;59669.53;4972908;28;20455;-62
2022/09/07 11:26:47;;;;;;;0.43;0.20;;;;;;;-142.37;100.00;59669.53;4973147;28;20035;-65
2022/09/07 11:29:47;;;;;;;1.15;0.30;;;;;;;-142.37;100.00;59669.53;4972562;28;20038;-61